Time;durP1;ratioP1;P1;durP2;ratioP2;P2;SDS_P1;SDS_P2;PMS_P1;PMS_P2;Temp;Humidity;BMP_temperature;BMP_pressure;BME280_temperature;BME280_humidity;BME280_pressure;Samples;Min_cycle;Max_cycle;Signal;HPM_P1;HPM_P2
2022/09/06 00:01:41;;;;;;;5.15;4.65;;;20.10;92.30;;;;;;5015504;28;20524;-75
2022/09/06 00:04:07;;;;;;;5.82;4.30;;;20.10;92.20;;;;;;5015488;28;20052;-76
2022/09/06 00:06:33;;;;;;;7.60;4.22;;;20.10;92.10;;;;;;5015803;28;20488;-75
2022/09/06 00:08:59;;;;;;;5.78;4.32;;;20.10;92.10;;;;;;5015264;28;20056;-75
2022/09/06 00:11:25;;;;;;;5.90;4.63;;;20.10;92.20;;;;;;5014964;28;20045;-75
2022/09/06 00:13:51;;;;;;;5.57;4.32;;;20.10;92.20;;;;;;5015739;28;20072;-73
2022/09/06 00:16:19;;;;;;;6.50;5.45;;;20.00;92.10;;;;;;5015179;28;20520;-73
2022/09/06 00:18:45;;;;;;;5.00;4.50;;;20.00;92.10;;;;;;4997914;28;20140;-74
2022/09/06 00:21:37;;;;;;;5.50;4.97;;;20.00;92.10;;;;;;5014868;28;20133;-76
2022/09/06 00:24:03;;;;;;;5.03;4.63;;;19.90;92.30;;;;;;5011822;28;20112;-76
2022/09/06 00:26:29;;;;;;;4.93;4.30;;;19.90;92.30;;;;;;5014932;28;20054;-76
2022/09/06 00:28:54;;;;;;;7.53;4.80;;;19.80;92.30;;;;;;5014531;28;20085;-75
2022/09/06 00:31:23;;;;;;;5.75;5.25;;;19.80;92.50;;;;;;5014880;28;20042;-76
2022/09/06 00:33:49;;;;;;;9.95;5.30;;;19.80;92.50;;;;;;5015412;28;20042;-76
2022/09/06 00:36:15;;;;;;;6.22;5.00;;;19.80;92.60;;;;;;5015488;28;20379;-76
2022/09/06 00:38:41;;;;;;;7.55;4.97;;;19.80;92.80;;;;;;5014827;28;20054;-75
2022/09/06 00:41:09;;;;;;;5.60;5.10;;;19.70;92.70;;;;;;4997526;28;20050;-76
2022/09/06 00:43:35;;;;;;;6.38;4.30;;;19.70;92.80;;;;;;5014593;28;20041;-75
2022/09/06 00:46:02;;;;;;;6.88;4.85;;;19.60;92.90;;;;;;5015041;28;20053;-77
2022/09/06 00:48:27;;;;;;;7.68;5.00;;;19.60;93.10;;;;;;5015097;28;20058;-76
2022/09/06 00:50:57;;;;;;;5.88;4.65;;;19.60;93.20;;;;;;5014514;28;20053;-76
2022/09/06 00:53:24;;;;;;;4.93;4.47;;;19.60;93.20;;;;;;5014077;28;20417;-77
2022/09/06 00:55:49;;;;;;;4.82;4.43;;;19.50;93.40;;;;;;5014860;28;20064;-73
2022/09/06 00:58:15;;;;;;;11.20;4.80;;;19.50;93.40;;;;;;4997718;28;20474;-75
2022/09/06 01:00:43;;;;;;;5.10;4.40;;;19.50;93.40;;;;;;5014578;28;20085;-75
2022/09/06 01:03:09;;;;;;;5.47;4.82;;;19.50;93.40;;;;;;5014266;28;20042;-77
2022/09/06 01:05:49;;;;;;;5.53;4.93;;;19.40;93.50;;;;;;5014515;28;20046;-76
2022/09/06 01:08:29;;;;;;;5.65;5.15;;;19.40;93.50;;;;;;5014586;28;20099;-76
2022/09/06 01:11:06;;;;;;;4.85;4.32;;;19.40;93.60;;;;;;5014575;28;20126;-76
2022/09/06 01:14:11;;;;;;;5.20;4.70;;;19.40;94.00;;;;;;5014104;28;20050;-76
2022/09/06 01:17:02;;;;;;;5.65;4.80;;;19.30;93.90;;;;;;5010689;28;20054;-75
2022/09/06 01:19:49;;;;;;;5.97;5.03;;;19.30;94.10;;;;;;5014334;28;20508;-76
2022/09/06 01:22:50;;;;;;;6.38;4.90;;;19.30;94.20;;;;;;5014076;28;20045;-76
2022/09/06 01:25:44;;;;;;;4.22;3.63;;;19.30;94.10;;;;;;5013766;28;20049;-75
2022/09/06 01:28:25;;;;;;;4.82;4.22;;;19.30;94.30;;;;;;5014278;28;20397;-76
2022/09/06 01:31:03;;;;;;;6.60;4.95;;;19.30;94.30;;;;;;5014397;28;20115;-76
2022/09/06 01:34:04;;;;;;;4.60;4.20;;;19.30;94.60;;;;;;5014047;28;20048;-76
2022/09/06 01:36:47;;;;;;;5.30;4.50;;;19.30;94.50;;;;;;4978666;28;20054;-72
2022/09/06 01:39:20;;;;;;;;;;;19.20;94.40;;;;;;5014513;28;20115;-75
2022/09/06 01:41:46;;;;;;;5.32;4.82;;;19.20;94.10;;;;;;5013648;28;19922;-76
2022/09/06 01:44:12;;;;;;;5.28;4.32;;;19.20;94.30;;;;;;5013759;28;20092;-75
2022/09/06 01:46:54;;;;;;;6.97;5.05;;;19.20;94.40;;;;;;5013407;28;20129;-77
2022/09/06 01:49:44;;;;;;;5.35;4.88;;;19.20;94.60;;;;;;5013524;28;20509;-76
2022/09/06 01:52:25;;;;;;;5.70;5.20;;;19.20;94.30;;;;;;5013320;28;20045;-76
2022/09/06 01:55:11;;;;;;;4.63;4.10;;;19.20;94.20;;;;;;5013876;28;20133;-77
2022/09/06 01:57:47;;;;;;;5.00;4.60;;;19.30;94.60;;;;;;4996237;28;20062;-75
2022/09/06 02:00:18;;;;;;;6.43;5.88;;;19.20;94.50;;;;;;5013941;28;20049;-77
2022/09/06 02:03:21;;;;;;;7.70;5.72;;;19.20;94.50;;;;;;5013314;28;20542;-75
2022/09/06 02:05:58;;;;;;;5.25;4.75;;;19.20;94.40;;;;;;5013532;28;20060;-76
2022/09/06 02:08:47;;;;;;;9.63;5.50;;;19.20;94.70;;;;;;5013197;28;20130;-75
2022/09/06 02:11:14;;;;;;;5.40;4.90;;;19.20;94.60;;;;;;5013496;28;20150;-76
2022/09/06 02:13:51;;;;;;;5.97;5.07;;;19.20;94.60;;;;;;5012957;28;20481;-74
2022/09/06 02:16:22;;;;;;;5.57;5.07;;;19.10;94.50;;;;;;5013602;28;20147;-76
2022/09/06 02:19:10;;;;;;;5.38;4.88;;;19.10;94.60;;;;;;5013015;28;20053;-76
2022/09/06 02:21:41;;;;;;;5.93;5.32;;;19.10;94.60;;;;;;5012995;28;20097;-77
2022/09/06 02:24:10;;;;;;;5.53;5.00;;;19.10;94.50;;;;;;5013462;28;20119;-76
2022/09/06 02:26:39;;;;;;;6.07;5.50;;;19.10;94.50;;;;;;5013010;28;20050;-76
2022/09/06 02:29:05;;;;;;;6.57;5.70;;;19.10;94.70;;;;;;5013296;28;20050;-75
2022/09/06 02:31:33;;;;;;;7.75;5.00;;;19.10;94.60;;;;;;5012816;28;20050;-75
2022/09/06 02:33:59;;;;;;;6.25;5.07;;;19.10;94.50;;;;;;5012736;28;20054;-76
2022/09/06 02:36:25;;;;;;;6.15;5.40;;;19.10;94.50;;;;;;4995507;28;20129;-76
2022/09/06 02:38:53;;;;;;;5.53;4.88;;;19.10;94.40;;;;;;5012685;28;20045;-75
2022/09/06 02:41:21;;;;;;;6.78;5.45;;;19.10;94.50;;;;;;4995665;28;20353;-76
2022/09/06 02:43:47;;;;;;;5.72;5.22;;;19.10;94.40;;;;;;5012663;28;20511;-76
2022/09/06 02:46:13;;;;;;;6.68;5.45;;;19.10;94.40;;;;;;5014670;28;20057;-76
2022/09/06 02:48:39;;;;;;;5.40;5.00;;;19.10;94.40;;;;;;5019195;28;20056;-75
2022/09/06 02:51:06;;;;;;;6.63;5.18;;;19.10;94.50;;;;;;5001593;28;20041;-75
2022/09/06 02:53:32;;;;;;;7.30;5.75;;;19.10;94.60;;;;;;5019115;28;20117;-76
2022/09/06 02:55:58;;;;;;;6.30;5.35;;;19.10;94.70;;;;;;5018951;28;20101;-76
2022/09/06 02:58:24;;;;;;;5.50;4.95;;;19.00;94.70;;;;;;5019174;28;20058;-73
2022/09/06 03:00:51;;;;;;;5.70;5.10;;;19.00;94.70;;;;;;5019120;28;20172;-77
2022/09/06 03:03:16;;;;;;;6.72;5.15;;;19.00;94.60;;;;;;5019073;28;20046;-75
2022/09/06 03:05:46;;;;;;;6.88;4.97;;;19.00;94.70;;;;;;5019008;28;20042;-75
2022/09/06 03:08:12;;;;;;;6.57;4.85;;;18.90;94.90;;;;;;5019824;28;20129;-75
2022/09/06 03:10:38;;;;;;;5.97;5.38;;;18.90;95.00;;;;;;5019017;28;20081;-73
2022/09/06 03:13:03;;;;;;;17.40;5.82;;;18.90;95.00;;;;;;5018934;28;20053;-76
2022/09/06 03:15:29;;;;;;;6.35;5.45;;;18.90;95.10;;;;;;5019377;28;20049;-76
2022/09/06 03:17:58;;;;;;;6.38;5.35;;;18.90;95.10;;;;;;5019176;28;20538;-76
2022/09/06 03:20:24;;;;;;;8.63;5.72;;;18.90;95.10;;;;;;5019273;28;20050;-76
2022/09/06 03:22:50;;;;;;;13.13;5.80;;;18.90;95.10;;;;;;5019618;28;20080;-76
2022/09/06 03:25:16;;;;;;;5.72;5.20;;;18.90;95.10;;;;;;5018834;28;20450;-76
2022/09/06 03:27:42;;;;;;;6.45;5.15;;;18.90;95.30;;;;;;5018975;28;20070;-75
2022/09/06 03:30:09;;;;;;;6.90;5.85;;;18.80;95.20;;;;;;5019222;28;20121;-76
2022/09/06 03:32:34;;;;;;;7.38;5.60;;;18.80;95.30;;;;;;5018731;28;20136;-76
2022/09/06 03:35:00;;;;;;;6.47;5.88;;;18.80;95.30;;;;;;5018818;28;20421;-76
2022/09/06 03:37:26;;;;;;;7.68;5.88;;;18.80;95.30;;;;;;5001862;28;20045;-75
2022/09/06 03:39:53;;;;;;;6.85;6.10;;;18.80;95.60;;;;;;5019015;28;20396;-76
2022/09/06 03:42:20;;;;;;;6.35;5.75;;;18.70;95.40;;;;;;5019199;28;20084;-76
2022/09/06 03:44:46;;;;;;;5.80;5.30;;;18.70;95.50;;;;;;5018929;28;20141;-74
2022/09/06 03:47:12;;;;;;;5.72;5.07;;;18.70;95.60;;;;;;5018873;28;20458;-75
2022/09/06 03:49:38;;;;;;;6.97;6.13;;;18.70;95.70;;;;;;5001948;28;20074;-76
2022/09/06 03:52:04;;;;;;;7.82;5.97;;;18.70;95.70;;;;;;5018587;28;20050;-76
2022/09/06 03:54:30;;;;;;;6.70;5.60;;;18.70;95.80;;;;;;5018651;28;20494;-76
2022/09/06 03:56:56;;;;;;;6.28;5.65;;;18.70;95.80;;;;;;5018309;28;20050;-76
2022/09/06 03:59:21;;;;;;;6.65;6.05;;;18.70;95.90;;;;;;5014320;28;20045;-75
2022/09/06 04:01:47;;;;;;;7.43;6.55;;;18.60;95.90;;;;;;5015227;28;20474;-73
2022/09/06 04:04:13;;;;;;;8.65;6.47;;;18.60;95.90;;;;;;5015764;28;20056;-75
2022/09/06 04:06:38;;;;;;;6.90;6.40;;;18.60;95.90;;;;;;5015494;28;20054;-75
2022/09/06 04:09:04;;;;;;;9.35;6.22;;;18.60;96.20;;;;;;5014993;28;20041;-73
2022/09/06 04:11:30;;;;;;;7.95;7.15;;;18.60;96.20;;;;;;5015545;28;20049;-77
2022/09/06 04:13:55;;;;;;;7.82;6.55;;;18.60;96.30;;;;;;5015147;28;20121;-76
2022/09/06 04:16:21;;;;;;;7.88;6.82;;;18.60;96.20;;;;;;5015223;28;20041;-75
2022/09/06 04:18:46;;;;;;;7.65;5.78;;;18.60;96.10;;;;;;5015618;28;20185;-77
2022/09/06 04:21:12;;;;;;;9.32;6.35;;;18.60;96.10;;;;;;5015316;28;20070;-75
2022/09/06 04:23:38;;;;;;;7.45;6.75;;;18.60;96.00;;;;;;5015310;28;20053;-74
2022/09/06 04:26:04;;;;;;;8.48;6.75;;;18.70;96.10;;;;;;5015361;28;20462;-76
2022/09/06 04:28:29;;;;;;;8.05;6.55;;;18.70;96.00;;;;;;5015195;28;20394;-74
2022/09/06 04:30:57;;;;;;;8.32;6.20;;;18.70;96.00;;;;;;5015306;28;20400;-76
2022/09/06 04:33:24;;;;;;;8.25;6.20;;;18.70;96.00;;;;;;5014774;28;20052;-73
2022/09/06 04:35:55;;;;;;;6.38;5.80;;;18.70;96.00;;;;;;5014900;28;20096;-75
2022/09/06 04:38:25;;;;;;;8.88;6.72;;;18.80;96.10;;;;;;4998092;28;20061;-75
2022/09/06 04:40:51;;;;;;;10.05;7.50;;;18.80;96.00;;;;;;5013577;28;20057;-75
2022/09/06 04:43:16;;;;;;;7.60;6.82;;;18.80;96.00;;;;;;5014663;28;20050;-75
2022/09/06 04:45:43;;;;;;;7.95;6.82;;;18.80;96.10;;;;;;5014873;28;20128;-75
2022/09/06 04:48:08;;;;;;;7.03;6.32;;;18.80;96.20;;;;;;5014902;28;20081;-75
2022/09/06 04:50:35;;;;;;;8.05;6.68;;;18.80;96.20;;;;;;5014283;28;20087;-73
2022/09/06 04:53:00;;;;;;;18.02;7.57;;;18.80;96.30;;;;;;5014422;28;20129;-76
2022/09/06 04:55:28;;;;;;;9.07;7.00;;;18.80;96.50;;;;;;5014430;28;20085;-79
2022/09/06 04:57:53;;;;;;;9.90;6.90;;;18.80;96.70;;;;;;5014287;28;20058;-79
2022/09/06 05:00:19;;;;;;;7.47;6.63;;;18.80;96.90;;;;;;5014899;28;20123;-77
2022/09/06 05:02:45;;;;;;;8.23;7.30;;;18.70;97.00;;;;;;5014273;28;20478;-77
2022/09/06 05:05:11;;;;;;;12.82;7.57;;;18.70;97.20;;;;;;5014549;28;20100;-76
2022/09/06 05:07:36;;;;;;;9.05;7.80;;;18.60;97.30;;;;;;5014110;28;20056;-76
2022/09/06 05:10:02;;;;;;;7.65;6.70;;;18.60;97.70;;;;;;5013863;28;20046;-76
2022/09/06 05:12:28;;;;;;;9.45;7.78;;;18.60;97.90;;;;;;4996459;28;20061;-73
2022/09/06 05:14:53;;;;;;;9.20;8.15;;;18.60;98.10;;;;;;5014544;28;20049;-76
2022/09/06 05:17:19;;;;;;;9.88;7.80;;;18.50;98.40;;;;;;5014250;28;20046;-74
2022/09/06 05:19:45;;;;;;;10.73;8.18;;;18.50;98.70;;;;;;5014266;28;20046;-74
2022/09/06 05:22:11;;;;;;;8.60;7.78;;;18.40;98.90;;;;;;4996879;28;20146;-76
2022/09/06 05:24:36;;;;;;;8.98;7.95;;;18.40;99.30;;;;;;5013859;28;20037;-76
2022/09/06 05:27:04;;;;;;;10.30;8.32;;;18.10;99.40;;;;;;5013563;28;20050;-76
2022/09/06 05:29:30;;;;;;;8.05;7.28;;;18.40;99.70;;;;;;5013802;28;20107;-76
2022/09/06 05:31:56;;;;;;;9.73;7.68;;;18.40;99.80;;;;;;5013707;28;20478;-77
2022/09/06 05:34:21;;;;;;;9.60;8.38;;;18.40;99.90;;;;;;5013698;28;20046;-76
2022/09/06 05:36:47;;;;;;;9.07;8.18;;;18.40;99.90;;;;;;5013696;28;20061;-76
2022/09/06 05:39:13;;;;;;;10.32;8.45;;;18.40;99.90;;;;;;5013844;28;20219;-74
2022/09/06 05:41:38;;;;;;;9.20;8.35;;;18.40;99.90;;;;;;5013548;28;20038;-77
2022/09/06 05:44:04;;;;;;;9.20;8.23;;;18.40;99.90;;;;;;5013261;28;20045;-73
2022/09/06 05:46:30;;;;;;;9.75;8.52;;;18.40;99.90;;;;;;5013250;28;20370;-76
2022/09/06 05:49:00;;;;;;;11.95;8.48;;;18.40;99.90;;;;;;5013205;28;20435;-76
2022/09/06 05:51:26;;;;;;;9.23;7.63;;;18.40;99.90;;;;;;5013986;28;20100;-76
2022/09/06 05:53:51;;;;;;;9.40;7.55;;;18.40;99.90;;;;;;5013262;28;20092;-76
2022/09/06 05:56:17;;;;;;;9.85;8.57;;;18.50;99.90;;;;;;5012987;28;20042;-76
2022/09/06 05:58:43;;;;;;;9.80;8.27;;;18.50;99.90;;;;;;5013073;28;20080;-76
2022/09/06 06:01:25;;;;;;;9.75;8.38;;;18.50;99.90;;;;;;5013065;28;20038;-77
2022/09/06 06:03:51;;;;;;;11.93;8.25;;;18.50;99.90;;;;;;5012842;28;20049;-76
2022/09/06 06:06:17;;;;;;;9.32;8.32;;;18.50;99.90;;;;;;5012926;28;20076;-75
2022/09/06 06:08:43;;;;;;;12.13;9.65;;;18.60;99.90;;;;;;5013077;28;20089;-78
2022/09/06 06:11:09;;;;;;;10.50;8.40;;;18.60;99.90;;;;;;5012805;28;20050;-79
2022/09/06 06:13:38;;;;;;;8.95;8.05;;;18.60;99.90;;;;;;4995011;28;20081;-77
2022/09/06 06:16:05;;;;;;;12.65;9.02;;;18.60;99.90;;;;;;5013238;28;20068;-78
2022/09/06 06:18:31;;;;;;;10.65;9.35;;;18.60;99.90;;;;;;5013173;28;20135;-76
2022/09/06 06:21:07;;;;;;;11.38;8.30;;;18.70;99.90;;;;;;5011933;28;20383;-76
2022/09/06 06:23:33;;;;;;;9.45;8.55;;;18.70;99.90;;;;;;5012643;28;20050;-76
2022/09/06 06:25:58;;;;;;;9.88;8.45;;;18.70;99.90;;;;;;5012598;28;20104;-77
2022/09/06 06:28:24;;;;;;;10.82;9.52;;;18.70;99.90;;;;;;5012793;28;20490;-74
2022/09/06 06:30:50;;;;;;;12.30;8.93;;;18.80;99.90;;;;;;5012858;28;20061;-77
2022/09/06 06:33:15;;;;;;;12.32;9.30;;;18.80;99.90;;;;;;5012563;28;20046;-73
2022/09/06 06:35:54;;;;;;;12.07;9.13;;;18.90;99.90;;;;;;5012494;28;20075;-74
2022/09/06 06:38:20;;;;;;;12.65;8.93;;;18.90;99.90;;;;;;5012574;28;20056;-79
2022/09/06 06:40:46;;;;;;;12.85;9.85;;;18.90;99.90;;;;;;5012100;28;20045;-82
2022/09/06 06:43:11;;;;;;;9.68;8.48;;;18.90;99.90;;;;;;5012540;28;20046;-77
2022/09/06 06:45:37;;;;;;;10.70;9.52;;;18.90;99.90;;;;;;5012347;28;20038;-78
2022/09/06 06:48:03;;;;;;;10.55;9.25;;;18.90;99.90;;;;;;5012496;28;20061;-76
2022/09/06 06:50:28;;;;;;;9.55;8.55;;;18.90;99.90;;;;;;5012334;28;20053;-80
2022/09/06 06:52:54;;;;;;;10.63;8.95;;;18.90;99.90;;;;;;5012252;28;20038;-75
2022/09/06 06:55:19;;;;;;;11.52;9.43;;;18.90;99.90;;;;;;5012317;28;20050;-76
2022/09/06 06:57:45;;;;;;;12.75;9.15;;;18.90;99.90;;;;;;5012374;28;20042;-75
2022/09/06 07:00:11;;;;;;;9.95;8.95;;;18.90;99.90;;;;;;5012368;28;20096;-75
2022/09/06 07:02:37;;;;;;;10.57;9.55;;;18.90;99.90;;;;;;4995162;28;20038;-75
2022/09/06 07:05:02;;;;;;;12.65;9.98;;;18.90;99.90;;;;;;5012135;28;20129;-73
2022/09/06 07:07:28;;;;;;;14.02;9.15;;;18.90;99.90;;;;;;5012335;28;20081;-77
2022/09/06 07:09:54;;;;;;;10.93;9.55;;;19.00;99.90;;;;;;5012264;28;20057;-73
2022/09/06 07:12:19;;;;;;;9.90;8.90;;;19.00;99.90;;;;;;5011355;28;20045;-73
2022/09/06 07:14:45;;;;;;;11.05;9.93;;;19.00;99.90;;;;;;5012201;28;20046;-73
2022/09/06 07:17:11;;;;;;;16.95;10.45;;;19.00;99.90;;;;;;5012218;28;20114;-77
2022/09/06 07:19:36;;;;;;;14.70;10.15;;;19.00;99.90;;;;;;5012105;28;20064;-76
2022/09/06 07:22:02;;;;;;;13.75;9.88;;;19.00;99.90;;;;;;5011845;28;20065;-76
2022/09/06 07:24:27;;;;;;;16.55;10.82;;;19.10;99.90;;;;;;5012088;28;20053;-72
2022/09/06 07:26:53;;;;;;;12.65;10.38;;;19.20;99.90;;;;;;4994808;28;20058;-76
2022/09/06 07:29:19;;;;;;;10.70;9.65;;;19.60;99.90;;;;;;5011816;28;20054;-72
2022/09/06 07:31:44;;;;;;;11.90;10.65;;;20.30;99.90;;;;;;5012195;28;20050;-72
2022/09/06 07:34:10;;;;;;;10.25;9.23;;;21.10;99.90;;;;;;5015686;28;20046;-76
2022/09/06 07:36:36;;;;;;;12.63;10.43;;;22.10;99.70;;;;;;5015795;28;20099;-77
2022/09/06 07:39:01;;;;;;;13.50;10.23;;;23.30;98.40;;;;;;5016299;28;20046;-76
2022/09/06 07:41:27;;;;;;;14.18;10.45;;;24.50;96.50;;;;;;5015889;28;20547;-75
2022/09/06 07:43:53;;;;;;;13.55;10.23;;;25.70;95.10;;;;;;5015828;28;20050;-77
2022/09/06 07:46:19;;;;;;;11.35;10.20;;;26.50;93.50;;;;;;5015533;28;20045;-76
2022/09/06 07:48:45;;;;;;;12.60;10.90;;;27.00;92.20;;;;;;5015740;28;20053;-74
2022/09/06 07:51:15;;;;;;;11.15;10.00;;;27.00;91.60;;;;;;5015731;28;20048;-77
2022/09/06 07:53:43;;;;;;;10.07;9.07;;;26.70;91.20;;;;;;5015680;28;20052;-76
2022/09/06 07:56:11;;;;;;;14.30;10.35;;;26.20;91.20;;;;;;5015357;28;20050;-77
2022/09/06 07:58:38;;;;;;;11.20;10.05;;;25.90;91.10;;;;;;5015237;28;20042;-77
2022/09/06 08:01:20;;;;;;;11.07;9.80;;;25.60;90.90;;;;;;5015711;28;20061;-75
2022/09/06 08:03:46;;;;;;;12.85;10.90;;;26.10;90.70;;;;;;5015216;28;20052;-76
2022/09/06 08:06:12;;;;;;;11.07;9.98;;;26.90;90.30;;;;;;4997729;28;20497;-76
2022/09/06 08:08:38;;;;;;;10.13;8.88;;;28.00;89.60;;;;;;5015037;28;20049;-79
2022/09/06 08:11:06;;;;;;;12.95;10.30;;;28.60;88.20;;;;;;5015022;28;20065;-76
2022/09/06 08:13:33;;;;;;;12.90;10.02;;;29.20;86.90;;;;;;5014915;28;20189;-76
2022/09/06 08:16:00;;;;;;;10.90;9.73;;;29.70;85.90;;;;;;5014864;28;20103;-78
2022/09/06 08:18:25;;;;;;;13.10;9.40;;;30.00;84.00;;;;;;5015213;28;20481;-79
2022/09/06 08:20:51;;;;;;;10.57;9.38;;;29.90;83.30;;;;;;5015004;28;20048;-75
2022/09/06 08:23:17;;;;;;;10.57;9.48;;;29.20;83.60;;;;;;5015383;28;20045;-74
2022/09/06 08:25:42;;;;;;;10.68;8.95;;;28.10;83.60;;;;;;5015302;28;20488;-74
2022/09/06 08:28:08;;;;;;;11.25;9.95;;;27.00;84.60;;;;;;5015288;28;20046;-74
2022/09/06 08:30:34;;;;;;;15.65;9.60;;;25.90;85.50;;;;;;5014826;28;20050;-74
2022/09/06 08:33:00;;;;;;;10.63;9.63;;;25.20;86.90;;;;;;5014572;28;20045;-74
2022/09/06 08:35:26;;;;;;;11.23;9.50;;;25.20;87.80;;;;;;5014784;28;20485;-74
2022/09/06 08:37:52;;;;;;;16.95;10.32;;;25.90;87.50;;;;;;5015008;28;20042;-74
2022/09/06 08:40:22;;;;;;;9.52;8.45;;;26.80;86.70;;;;;;5014814;28;20501;-74
2022/09/06 08:42:48;;;;;;;9.80;8.90;;;27.90;85.60;;;;;;4997671;28;20103;-75
2022/09/06 08:45:18;;;;;;;13.65;9.90;;;28.80;84.10;;;;;;5014211;28;20133;-74
2022/09/06 08:47:44;;;;;;;11.90;9.88;;;29.40;82.70;;;;;;5014780;28;20123;-74
2022/09/06 08:50:10;;;;;;;10.02;8.20;;;29.80;81.30;;;;;;5014608;28;20046;-74
2022/09/06 08:53:06;;;;;;;10.43;8.38;;;30.30;81.20;;;;;;5014104;28;20385;-74
2022/09/06 08:55:36;;;;;;;13.18;9.15;;;30.70;79.30;;;;;;5014396;28;20086;-74
2022/09/06 08:58:23;;;;;;;9.88;8.88;;;30.80;80.20;;;;;;5014251;28;20053;-75
2022/09/06 09:00:57;;;;;;;10.40;9.05;;;31.30;77.60;;;;;;5014304;28;20388;-74
2022/09/06 09:03:38;;;;;;;9.05;8.13;;;31.80;78.60;;;;;;5014690;28;20042;-74
2022/09/06 09:06:06;;;;;;;9.52;8.63;;;32.20;77.50;;;;;;5014785;28;20053;-75
2022/09/06 09:08:38;;;;;;;10.05;8.20;;;32.10;78.20;;;;;;5014497;28;20045;-75
2022/09/06 09:11:10;;;;;;;;;;;32.20;76.70;;;;;;5014513;28;20053;-74
2022/09/06 09:13:49;;;;;;;8.97;8.07;;;32.20;75.40;;;;;;5014038;28;20392;-79
2022/09/06 09:16:16;;;;;;;9.15;8.25;;;32.50;75.50;;;;;;5014188;28;20057;-79
2022/09/06 09:18:47;;;;;;;9.80;7.88;;;32.40;76.10;;;;;;5014404;28;20491;-77
2022/09/06 09:21:17;;;;;;;12.57;9.25;;;32.20;75.10;;;;;;5014145;28;20477;-78
2022/09/06 09:23:47;;;;;;;9.32;8.00;;;32.00;77.60;;;;;;5014478;28;20045;-77
2022/09/06 09:26:14;;;;;;;8.05;7.28;;;31.20;76.90;;;;;;5013898;28;20054;-79
2022/09/06 09:29:04;;;;;;;8.63;7.82;;;30.30;77.80;;;;;;5013719;28;20046;-79
2022/09/06 09:31:35;;;;;;;12.68;7.57;;;29.70;77.40;;;;;;5013827;28;20046;-78
2022/09/06 09:34:03;;;;;;;9.20;6.72;;;29.40;78.40;;;;;;5013500;28;20088;-74
2022/09/06 09:36:30;;;;;;;11.07;8.13;;;29.40;78.60;;;;;;5013845;28;20357;-76
2022/09/06 09:38:57;;;;;;;10.00;7.85;;;29.70;78.00;;;;;;4980072;28;20060;-80
2022/09/06 09:41:32;;;;;;;8.80;7.72;;;29.30;78.20;;;;;;5013993;28;20046;-79
2022/09/06 09:44:01;;;;;;;9.63;7.97;;;29.10;78.20;;;;;;5014003;28;20053;-78
2022/09/06 09:46:33;;;;;;;10.13;8.20;;;28.80;78.70;;;;;;5013514;28;20046;-79
2022/09/06 09:49:06;;;;;;;7.73;7.00;;;29.50;78.60;;;;;;5013668;28;20459;-80
2022/09/06 09:51:40;;;;;;;9.32;8.40;;;30.70;78.40;;;;;;5013542;28;20489;-79
2022/09/06 09:54:08;;;;;;;12.18;7.88;;;31.50;77.10;;;;;;5013555;28;20038;-78
2022/09/06 09:56:37;;;;;;;8.32;7.53;;;32.00;76.30;;;;;;4995158;28;20049;-82
2022/09/06 09:59:15;;;;;;;8.30;7.38;;;32.00;75.60;;;;;;5013420;28;20091;-80
2022/09/06 10:01:41;;;;;;;9.35;8.55;;;32.30;74.30;;;;;;5013695;28;20200;-80
2022/09/06 10:04:10;;;;;;;11.13;8.88;;;32.40;74.60;;;;;;5013210;28;20096;-79
2022/09/06 10:06:36;;;;;;;11.45;9.00;;;32.30;74.20;;;;;;5013318;28;20054;-79
2022/09/06 10:09:20;;;;;;;10.38;9.40;;;32.40;74.20;;;;;;5013486;28;20049;-77
2022/09/06 10:11:55;;;;;;;12.18;9.02;;;32.40;72.90;;;;;;5012854;28;20042;-80
2022/09/06 10:14:30;;;;;;;10.02;9.00;;;32.60;73.20;;;;;;5012833;28;20096;-80
2022/09/06 10:16:57;;;;;;;9.52;8.32;;;32.80;72.50;;;;;;5012919;28;20517;-80
2022/09/06 10:19:39;;;;;;;9.50;8.48;;;32.50;73.20;;;;;;5012690;28;20146;-80
2022/09/06 10:22:34;;;;;;;11.70;9.30;;;32.70;72.10;;;;;;5013153;28;20366;-77
2022/09/06 10:25:05;;;;;;;8.93;8.15;;;32.70;72.90;;;;;;5013105;28;20052;-82
2022/09/06 10:27:32;;;;;;;9.93;8.75;;;32.80;72.70;;;;;;5012991;28;20124;-80
2022/09/06 10:30:04;;;;;;;10.13;9.18;;;33.30;72.90;;;;;;5012973;28;20065;-80
2022/09/06 10:32:33;;;;;;;11.40;9.50;;;33.70;72.10;;;;;;4995220;28;20050;-80
2022/09/06 10:35:14;;;;;;;10.48;9.48;;;33.90;71.90;;;;;;5012557;28;20046;-82
2022/09/06 10:37:47;;;;;;;12.27;10.13;;;33.70;71.40;;;;;;5012638;28;20057;-81
2022/09/06 10:40:38;;;;;;;12.15;10.55;;;33.80;71.20;;;;;;5012899;28;20311;-78
2022/09/06 10:43:07;;;;;;;10.90;9.50;;;33.30;70.50;;;;;;5012987;28;20038;-80
2022/09/06 10:45:55;;;;;;;9.65;8.68;;;32.60;71.50;;;;;;5012565;28;20508;-81
2022/09/06 10:48:37;;;;;;;14.43;9.60;;;32.10;71.90;;;;;;5012590;28;20442;-81
2022/09/06 10:51:33;;;;;;;18.80;10.83;;;31.50;72.70;;;;;;5012973;28;20057;-80
2022/09/06 10:54:09;;;;;;;11.27;10.05;;;30.30;73.40;;;;;;5012614;28;20296;-82
2022/09/06 10:56:51;;;;;;;12.40;9.95;;;29.30;74.80;;;;;;5012524;28;20384;-81
2022/09/06 10:59:27;;;;;;;14.52;9.35;;;28.80;75.40;;;;;;5011986;28;20089;-80
2022/09/06 11:01:56;;;;;;;14.07;9.80;;;28.50;75.90;;;;;;5012470;28;20633;-81
2022/09/06 11:04:51;;;;;;;10.98;9.82;;;28.20;76.00;;;;;;5012091;28;20497;-79
2022/09/06 11:07:27;;;;;;;12.73;9.82;;;27.80;76.30;;;;;;5012536;28;20058;-81
2022/09/06 11:09:58;;;;;;;9.77;8.77;;;27.70;76.90;;;;;;5016805;28;20054;-79
2022/09/06 11:12:47;;;;;;;10.45;9.40;;;27.70;77.50;;;;;;5016566;28;20123;-81
2022/09/06 11:15:14;;;;;;;10.50;9.35;;;27.50;77.30;;;;;;5016438;28;20187;-79
2022/09/06 11:17:52;;;;;;;9.80;8.80;;;27.30;77.60;;;;;;5015919;28;20054;-79
2022/09/06 11:20:24;;;;;;;9.63;8.23;;;27.30;77.60;;;;;;5014826;28;20484;-78
2022/09/06 11:23:27;;;;;;;9.55;8.52;;;27.40;77.80;;;;;;5016770;28;20180;-83
2022/09/06 11:26:12;;;;;;;11.85;8.70;;;27.40;78.10;;;;;;5016503;28;20061;-79
2022/09/06 11:28:51;;;;;;;9.10;8.23;;;27.40;78.20;;;;;;5016409;28;20061;-80
2022/09/06 11:31:27;;;;;;;9.20;7.30;;;27.40;77.70;;;;;;5016488;28;20041;-81
2022/09/06 11:34:20;;;;;;;8.70;7.25;;;27.30;78.00;;;;;;5016141;28;20117;-79
2022/09/06 11:36:48;;;;;;;6.72;6.03;;;27.30;77.60;;;;;;5011923;28;20065;-80
2022/09/06 11:39:26;;;;;;;10.23;6.47;;;27.30;77.60;;;;;;5015783;28;20054;-82
2022/09/06 11:41:52;;;;;;;8.02;6.28;;;27.40;77.80;;;;;;4998943;28;20373;-80
2022/09/06 11:44:51;;;;;;;7.75;6.03;;;27.40;77.20;;;;;;5015981;28;20038;-80
2022/09/06 11:47:40;;;;;;;8.75;5.97;;;27.40;77.10;;;;;;4995597;28;20054;-80
2022/09/06 11:50:23;;;;;;;7.97;6.18;;;27.60;77.00;;;;;;5015695;28;20049;-81
2022/09/06 11:53:01;;;;;;;8.88;6.65;;;27.60;77.40;;;;;;5015465;28;20046;-80
2022/09/06 11:55:33;;;;;;;9.50;5.93;;;27.60;76.90;;;;;;5015584;28;20504;-79
2022/09/06 11:58:01;;;;;;;8.15;5.85;;;27.50;76.60;;;;;;5015573;28;20065;-80
2022/09/06 12:00:27;;;;;;;7.53;6.30;;;27.70;76.70;;;;;;5015785;28;20069;-82
2022/09/06 12:02:52;;;;;;;8.43;6.57;;;27.70;76.50;;;;;;5016209;28;20503;-83
2022/09/06 12:05:27;;;;;;;6.88;6.15;;;27.90;76.20;;;;;;4997679;28;20053;-81
2022/09/06 12:08:11;;;;;;;9.32;6.22;;;27.90;76.40;;;;;;5015427;28;20057;-83
2022/09/06 12:10:46;;;;;;;9.35;6.75;;;28.00;76.40;;;;;;5015651;28;20069;-80
2022/09/06 12:13:37;;;;;;;7.25;5.93;;;28.00;75.80;;;;;;5015350;28;20042;-83
2022/09/06 12:16:03;;;;;;;9.10;7.43;;;28.20;76.20;;;;;;5015357;28;20115;-82
2022/09/06 12:18:46;;;;;;;7.40;6.70;;;28.10;76.00;;;;;;5014937;28;20451;-86
2022/09/06 12:21:39;;;;;;;7.53;6.82;;;28.10;76.30;;;;;;5015118;28;20061;-87
2022/09/06 12:24:25;;;;;;;7.15;6.18;;;28.00;76.50;;;;;;5015415;28;20050;-80
2022/09/06 12:27:12;;;;;;;7.53;6.80;;;28.00;76.40;;;;;;4997612;28;20050;-83
2022/09/06 12:29:38;;;;;;;8.82;7.22;;;28.00;76.70;;;;;;5015116;28;20046;-81
2022/09/06 12:32:04;;;;;;;7.18;6.47;;;28.20;76.40;;;;;;5015323;28;20061;-81
2022/09/06 12:34:34;;;;;;;8.00;6.38;;;28.30;76.10;;;;;;5014888;28;20081;-84
2022/09/06 12:37:03;;;;;;;10.38;5.88;;;28.20;76.00;;;;;;5014470;28;20533;-80
2022/09/06 12:39:29;;;;;;;8.77;6.05;;;28.30;76.20;;;;;;5014743;28;20049;-82
2022/09/06 12:42:04;;;;;;;6.13;5.55;;;28.40;75.90;;;;;;5014682;28;20061;-81
2022/09/06 12:44:41;;;;;;;7.30;5.97;;;28.50;75.40;;;;;;5014633;28;20089;-84
2022/09/06 12:47:22;;;;;;;8.10;6.57;;;28.50;75.60;;;;;;4998126;28;20054;-86
2022/09/06 12:50:09;;;;;;;6.35;5.18;;;28.60;75.70;;;;;;5015037;28;20057;-82
2022/09/06 12:52:45;;;;;;;6.18;5.65;;;28.60;75.10;;;;;;5014350;28;20049;-85
2022/09/06 12:55:26;;;;;;;5.32;4.78;;;28.70;75.00;;;;;;5014329;28;20053;-82
2022/09/06 12:57:57;;;;;;;7.50;5.05;;;28.80;75.10;;;;;;5014042;28;20476;-83
2022/09/06 13:00:25;;;;;;;6.45;5.03;;;28.90;75.00;;;;;;5014415;28;20050;-81
2022/09/06 13:03:13;;;;;;;6.80;5.53;;;29.00;74.40;;;;;;5014626;28;20504;-81